Time;durP1;ratioP1;P1;durP2;ratioP2;P2;SDS_P1;SDS_P2;PMS_P1;PMS_P2;Temp;Humidity;BMP_temperature;BMP_pressure;BME280_temperature;BME280_humidity;BME280_pressure;Samples;Min_cycle;Max_cycle;Signal;HPM_P1;HPM_P2
2024/04/25 00:01:30;;;;;;;;;;;;;;;19.55;48.13;99777.50;103182;1285;63459;-81
2024/04/25 00:03:56;;;;;;;;;;;;;;;19.54;47.98;99777.00;103473;1285;62165;-79
2024/04/25 00:06:22;;;;;;;;;;;;;;;19.54;47.87;99784.66;103261;1289;62135;-82
2024/04/25 00:08:47;;;;;;;;;;;;;;;19.54;47.97;99779.86;103148;1285;62311;-81
2024/04/25 00:11:17;;;;;;;;;;;;;;;19.54;48.08;99777.54;103159;1291;63453;-81
2024/04/25 00:13:43;;;;;;;;;;;;;;;19.54;48.03;99780.02;103339;1286;62178;-81
2024/04/25 00:16:09;;;;;;;;;;;;;;;19.55;48.03;99776.42;103163;1286;62095;-80
2024/04/25 00:18:34;;;;;;;;;;;;;;;19.54;48.00;99775.95;103302;1286;63488;-81
2024/04/25 00:21:01;;;;;;;;;;;;;;;19.55;47.95;99785.00;103163;1285;63330;-81
2024/04/25 00:23:27;;;;;;;;;;;;;;;19.54;48.06;99793.77;103227;1286;62213;-81
2024/04/25 00:25:52;;;;;;;;;;;;;;;19.54;47.91;99788.97;103197;1292;62280;-81
2024/04/25 00:28:18;;;;;;;;;;;;;;;19.54;48.10;99782.88;103183;1286;62404;-81
2024/04/25 00:30:46;;;;;;;;;;;;;;;19.54;47.96;99779.87;103207;1290;73524;-81
2024/04/25 00:33:11;;;;;;;;;;;;;;;19.54;47.91;99777.50;103334;1288;76355;-80
2024/04/25 00:35:37;;;;;;;;;;;;;;;19.54;48.08;99778.06;103190;1285;62302;-81
2024/04/25 00:38:03;;;;;;;;;;;;;;;19.54;48.16;99782.00;103080;1290;62203;-80
2024/04/25 00:40:28;;;;;;;;;;;;;;;19.53;48.15;99780.09;103200;1285;62360;-80
2024/04/25 00:42:54;;;;;;;;;;;;;;;19.54;48.08;99772.93;103247;1286;63361;-80
2024/04/25 00:45:19;;;;;;;;;;;;;;;19.54;48.02;99770.23;103261;1285;75225;-81
2024/04/25 00:47:45;;;;;;;;;;;;;;;19.54;48.11;99779.17;103263;1285;62083;-82
2024/04/25 00:50:11;;;;;;;;;;;;;;;19.53;48.21;99782.93;103303;1286;62261;-80
2024/04/25 00:52:37;;;;;;;;;;;;;;;19.53;48.09;99780.96;103413;1286;63384;-82
2024/04/25 00:55:04;;;;;;;;;;;;;;;19.53;48.20;99768.30;103156;1291;62281;-83
2024/04/25 00:57:30;;;;;;;;;;;;;;;19.54;48.23;99764.34;103119;1289;62103;-80
2024/04/25 00:59:56;;;;;;;;;;;;;;;19.53;48.10;99769.02;103121;1289;62252;-82
2024/04/25 01:02:22;;;;;;;;;;;;;;;19.54;48.21;99769.18;103080;1292;62393;-80
2024/04/25 01:04:50;;;;;;;;;;;;;;;19.54;48.14;99765.23;103078;1289;62951;-81
2024/04/25 01:07:15;;;;;;;;;;;;;;;19.54;48.31;99769.35;103129;1289;62140;-81
2024/04/25 01:09:42;;;;;;;;;;;;;;;19.54;48.40;99771.30;103090;1289;62188;-82
2024/04/25 01:12:08;;;;;;;;;;;;;;;19.53;48.17;99774.24;103127;1292;62367;-80
2024/04/25 01:14:34;;;;;;;;;;;;;;;19.54;48.30;99782.56;103207;1291;62283;-81
2024/04/25 01:16:59;;;;;;;;;;;;;;;19.53;48.23;99782.77;103096;1288;76351;-80
2024/04/25 01:19:25;;;;;;;;;;;;;;;19.54;48.40;99778.98;102733;1294;62538;-81
2024/04/25 01:21:50;;;;;;;;;;;;;;;19.53;48.32;99771.34;103055;1289;62191;-80
2024/04/25 01:24:27;;;;;;;;;;;;;;;19.54;48.23;99762.76;103058;1290;62243;-82
2024/04/25 01:26:54;;;;;;;;;;;;;;;19.54;48.13;99760.23;103133;1287;75377;-80
2024/04/25 01:29:19;;;;;;;;;;;;;;;19.53;48.44;99762.95;103133;1285;62353;-80
2024/04/25 01:31:45;;;;;;;;;;;;;;;19.53;48.31;99759.75;103191;1292;62204;-80
2024/04/25 01:34:14;;;;;;;;;;;;;;;19.53;48.27;99755.67;103247;1285;63491;-80
2024/04/25 01:36:42;;;;;;;;;;;;;;;19.53;48.26;99749.25;103263;1288;76522;-79
2024/04/25 01:39:09;;;;;;;;;;;;;;;19.53;48.32;99751.02;103274;1285;62194;-80
2024/04/25 01:41:34;;;;;;;;;;;;;;;19.53;48.34;99756.58;103133;1292;62197;-81
2024/04/25 01:44:00;;;;;;;;;;;;;;;19.53;48.39;99762.61;103183;1286;62228;-80
2024/04/25 01:46:26;;;;;;;;;;;;;;;19.53;48.26;99753.72;103295;1290;63397;-80
2024/04/25 01:48:51;;;;;;;;;;;;;;;19.53;48.32;99751.55;103206;1286;62129;-81
2024/04/25 01:51:20;;;;;;;;;;;;;;;19.53;48.47;99750.29;103236;1285;62198;-83
2024/04/25 01:53:45;;;;;;;;;;;;;;;19.53;48.31;99762.99;103200;1291;62286;-80
2024/04/25 01:56:11;;;;;;;;;;;;;;;19.53;48.41;99794.40;103296;1291;63363;-81
2024/04/25 01:58:37;;;;;;;;;;;;;;;19.53;48.32;99793.36;103352;1286;63299;-80
2024/04/25 02:01:02;;;;;;;;;;;;;;;19.53;48.39;99784.05;103245;1291;62291;-81
2024/04/25 02:03:28;;;;;;;;;;;;;;;19.53;48.60;99777.23;103149;1285;62185;-81
2024/04/25 02:05:54;;;;;;;;;;;;;;;19.53;48.41;99777.27;103304;1285;62693;-84
2024/04/25 02:08:20;;;;;;;;;;;;;;;19.53;48.49;99782.79;103188;1286;72983;-81
2024/04/25 02:10:45;;;;;;;;;;;;;;;19.52;48.43;99772.86;103233;1290;62184;-81
2024/04/25 02:13:11;;;;;;;;;;;;;;;19.53;48.54;99761.23;103281;1285;62136;-79
2024/04/25 02:15:37;;;;;;;;;;;;;;;19.53;48.39;99753.55;103211;1286;62139;-82
2024/04/25 02:18:03;;;;;;;;;;;;;;;19.53;48.44;99750.17;103179;1286;62277;-81
2024/04/25 02:26:02;;;;;;;;;;;;;;;19.52;48.56;99731.45;102481;1288;1077858;-82
2024/04/25 02:28:28;;;;;;;;;;;;;;;19.52;48.51;99733.04;103358;1291;62284;-81
2024/04/25 02:30:54;;;;;;;;;;;;;;;19.52;48.57;99733.95;103168;1286;63493;-82
2024/04/25 02:33:21;;;;;;;;;;;;;;;19.52;48.70;99738.92;103158;1291;62200;-81
2024/04/25 02:35:47;;;;;;;;;;;;;;;19.52;48.62;99753.24;103258;1286;62290;-83
2024/04/25 02:38:12;;;;;;;;;;;;;;;19.52;48.60;99747.86;103220;1291;62203;-80
2024/04/25 02:40:38;;;;;;;;;;;;;;;19.52;48.53;99744.31;103149;1285;63429;-81
2024/04/25 02:43:04;;;;;;;;;;;;;;;19.52;48.61;99745.04;103312;1291;62225;-81
2024/04/25 02:45:29;;;;;;;;;;;;;;;19.52;48.60;99733.26;103173;1286;62580;-80
2024/04/25 02:47:55;;;;;;;;;;;;;;;19.52;48.57;99728.27;103291;1286;63386;-81
2024/04/25 02:50:21;;;;;;;;;;;;;;;19.52;48.68;99737.71;103212;1286;74996;-80
2024/04/25 02:52:46;;;;;;;;;;;;;;;19.52;48.68;99743.57;103329;1285;63387;-82
2024/04/25 02:55:12;;;;;;;;;;;;;;;19.52;48.50;99743.45;103233;1285;62200;-81
2024/04/25 02:57:37;;;;;;;;;;;;;;;19.52;48.58;99742.02;103159;1291;62565;-81
2024/04/25 03:00:03;;;;;;;;;;;;;;;19.52;48.62;99738.45;103292;1291;62141;-83
2024/04/25 03:02:29;;;;;;;;;;;;;;;19.52;48.53;99743.12;103274;1291;62520;-80
2024/04/25 03:04:58;;;;;;;;;;;;;;;19.51;48.69;99740.64;103179;1291;75469;-82
2024/04/25 03:07:23;;;;;;;;;;;;;;;19.51;48.77;99745.09;103260;1285;62223;-81
2024/04/25 03:09:49;;;;;;;;;;;;;;;19.52;48.65;99753.10;103164;1291;62204;-81
2024/04/25 03:12:14;;;;;;;;;;;;;;;19.52;48.63;99749.55;103183;1286;62168;-81
2024/04/25 03:14:40;;;;;;;;;;;;;;;19.51;48.60;99749.20;103295;1291;62199;-80
2024/04/25 03:17:06;;;;;;;;;;;;;;;19.51;48.74;99745.83;103248;1291;74800;-81
2024/04/25 03:19:31;;;;;;;;;;;;;;;19.51;48.72;99745.98;103206;1285;63478;-81
2024/04/25 03:21:57;;;;;;;;;;;;;;;19.52;48.75;99744.92;103171;1290;62188;-82
2024/04/25 03:24:22;;;;;;;;;;;;;;;19.51;48.80;99748.70;103269;1286;62240;-81
2024/04/25 03:26:49;;;;;;;;;;;;;;;19.51;48.64;99743.86;103243;1290;62165;-81
2024/04/25 03:29:14;;;;;;;;;;;;;;;19.51;48.77;99740.11;103253;1291;63417;-82
2024/04/25 03:31:42;;;;;;;;;;;;;;;19.51;48.64;99735.82;103263;1291;62689;-81
2024/04/25 03:34:08;;;;;;;;;;;;;;;19.51;48.86;99738.89;103184;1286;62201;-82
2024/04/25 03:36:35;;;;;;;;;;;;;;;19.51;48.86;99746.33;103182;1291;73544;-79
2024/04/25 03:39:00;;;;;;;;;;;;;;;19.51;48.72;99753.49;103252;1286;62677;-81
2024/04/25 03:41:26;;;;;;;;;;;;;;;19.51;48.87;99761.36;103353;1291;63370;-81
2024/04/25 03:43:52;;;;;;;;;;;;;;;19.51;48.77;99761.54;103103;1291;62145;-81
2024/04/25 03:46:17;;;;;;;;;;;;;;;19.51;48.72;99765.48;103230;1292;62495;-80
2024/04/25 03:48:43;;;;;;;;;;;;;;;19.51;48.70;99761.20;103231;1286;73428;-80
2024/04/25 03:51:12;;;;;;;;;;;;;;;19.51;48.74;99759.05;103265;1286;76163;-81
2024/04/25 03:53:37;;;;;;;;;;;;;;;19.51;48.91;99759.79;103286;1286;62208;-80
2024/04/25 03:56:03;;;;;;;;;;;;;;;19.51;48.79;99758.19;103278;1286;62194;-81
2024/04/25 03:58:29;;;;;;;;;;;;;;;19.50;48.78;99762.11;103257;1286;63253;-80
2024/04/25 04:00:55;;;;;;;;;;;;;;;19.49;48.75;99767.55;103238;1291;62286;-80
2024/04/25 04:03:21;;;;;;;;;;;;;;;19.50;48.67;99778.20;103330;1286;62204;-80
2024/04/25 04:05:47;;;;;;;;;;;;;;;19.50;48.71;99779.84;103168;1291;63388;-81
2024/04/25 04:08:13;;;;;;;;;;;;;;;19.49;48.66;99776.48;103253;1285;62231;-80
2024/04/25 04:10:41;;;;;;;;;;;;;;;19.49;48.81;99774.04;103195;1292;62208;-80
2024/04/25 04:13:07;;;;;;;;;;;;;;;19.49;48.63;99767.23;103207;1290;75372;-81
2024/04/25 04:15:33;;;;;;;;;;;;;;;19.48;48.74;99757.11;103209;1291;62240;-80
2024/04/25 04:18:01;;;;;;;;;;;;;;;19.48;48.76;99749.14;103274;1286;62194;-79
2024/04/25 04:20:27;;;;;;;;;;;;;;;19.47;48.83;99748.99;103118;1291;62133;-82
2024/04/25 04:22:53;;;;;;;;;;;;;;;19.47;48.62;99752.40;103135;1286;62227;-81
2024/04/25 04:25:19;;;;;;;;;;;;;;;19.46;48.72;99765.34;103236;1286;63522;-80
2024/04/25 04:27:45;;;;;;;;;;;;;;;19.46;48.69;99775.34;103195;1286;62211;-80
2024/04/25 04:30:10;;;;;;;;;;;;;;;19.44;48.88;99774.58;103194;1291;62143;-80
2024/04/25 04:32:36;;;;;;;;;;;;;;;19.44;48.67;99777.27;103330;1290;72329;-80
2024/04/25 04:35:01;;;;;;;;;;;;;;;19.43;48.61;99773.27;103153;1292;62293;-81
2024/04/25 04:37:27;;;;;;;;;;;;;;;19.42;48.69;99770.99;103434;1285;62117;-82
2024/04/25 04:39:53;;;;;;;;;;;;;;;19.41;48.69;99780.31;103632;1286;62194;-81
2024/04/25 04:42:18;;;;;;;;;;;;;;;19.41;48.64;99787.34;103510;1291;62227;-82
2024/04/25 04:44:44;;;;;;;;;;;;;;;19.40;48.67;99790.07;103463;1286;72519;-80
2024/04/25 04:47:10;;;;;;;;;;;;;;;19.39;48.71;99794.42;103633;1290;62210;-80
2024/04/25 04:49:35;;;;;;;;;;;;;;;19.39;48.70;99797.69;103500;1286;62933;-80
2024/04/25 04:52:01;;;;;;;;;;;;;;;19.38;48.66;99798.28;103471;1286;62342;-80
2024/04/25 04:54:27;;;;;;;;;;;;;;;19.37;48.61;99799.23;103649;1285;62249;-80
2024/04/25 04:56:55;;;;;;;;;;;;;;;19.36;48.76;99803.74;103597;1291;62446;-80
2024/04/25 04:59:21;;;;;;;;;;;;;;;19.36;48.64;99809.89;104020;1286;64152;-81
2024/04/25 05:01:47;;;;;;;;;;;;;;;19.35;48.83;99811.03;104068;1285;62106;-80
2024/04/25 05:04:12;;;;;;;;;;;;;;;19.35;48.70;99814.95;104243;1286;62184;-80
2024/04/25 05:06:38;;;;;;;;;;;;;;;19.35;48.70;99817.58;104092;1289;71110;-81
2024/04/25 05:09:06;;;;;;;;;;;;;;;19.35;48.67;99812.43;104222;1291;62344;-80
2024/04/25 05:11:32;;;;;;;;;;;;;;;19.35;48.88;99809.57;104343;1288;62194;-81
2024/04/25 05:14:00;;;;;;;;;;;;;;;19.36;48.72;99810.22;104419;1286;62691;-81
2024/04/25 05:16:26;;;;;;;;;;;;;;;19.36;48.81;99812.50;104621;1287;72628;-81
2024/04/25 05:18:51;;;;;;;;;;;;;;;19.38;48.82;99821.13;104378;1291;62203;-81
2024/04/25 05:21:17;;;;;;;;;;;;;;;19.39;48.65;99822.30;104488;1291;62199;-82
2024/04/25 05:23:43;;;;;;;;;;;;;;;19.40;48.77;99820.78;104503;1289;62189;-81
2024/04/25 05:26:11;;;;;;;;;;;;;;;19.41;48.87;99826.80;104507;1290;62187;-81
2024/04/25 05:28:36;;;;;;;;;;;;;;;19.40;48.88;99825.21;105181;1290;62119;-82
2024/04/25 05:31:02;;;;;;;;;;;;;;;19.40;48.76;99824.70;104717;1291;62103;-82
2024/04/25 05:33:28;;;;;;;;;;;;;;;19.40;48.86;99826.42;104797;1286;62171;-80
2024/04/25 05:35:54;;;;;;;;;;;;;;;19.41;48.84;99823.38;104477;1291;62139;-80
2024/04/25 05:38:21;;;;;;;;;;;;;;;19.41;48.74;99829.22;104426;1286;72502;-80
2024/04/25 05:40:46;;;;;;;;;;;;;;;19.41;48.91;99832.61;104552;1286;62113;-82
2024/04/25 05:43:12;;;;;;;;;;;;;;;19.42;48.82;99832.55;104430;1291;62206;-81
2024/04/25 05:45:37;;;;;;;;;;;;;;;19.42;48.90;99828.98;104446;1286;62200;-81
2024/04/25 05:48:03;;;;;;;;;;;;;;;19.41;48.92;99826.72;104558;1286;62213;-81
2024/04/25 05:50:29;;;;;;;;;;;;;;;19.42;48.92;99832.23;104532;1286;62229;-81
2024/04/25 05:52:54;;;;;;;;;;;;;;;19.40;48.84;99837.52;104529;1291;60368;-81
2024/04/25 05:55:20;;;;;;;;;;;;;;;19.38;49.02;99833.58;104594;1286;62174;-81
2024/04/25 05:57:45;;;;;;;;;;;;;;;19.38;49.11;99828.75;104513;1285;62163;-81
2024/04/25 06:00:11;;;;;;;;;;;;;;;19.37;49.12;99823.67;104571;1288;62195;-80
2024/04/25 06:02:37;;;;;;;;;;;;;;;19.37;49.09;99828.17;105005;1288;61141;-80
2024/04/25 06:05:02;;;;;;;;;;;;;;;19.38;49.15;99828.09;105213;1291;75032;-80
2024/04/25 06:07:28;;;;;;;;;;;;;;;19.38;49.24;99813.77;105194;1285;62181;-81
2024/04/25 06:09:53;;;;;;;;;;;;;;;19.39;49.22;99804.39;105153;1286;60847;-80
2024/04/25 06:12:19;;;;;;;;;;;;;;;19.41;49.35;99813.36;105025;1291;62070;-80
2024/04/25 06:14:45;;;;;;;;;;;;;;;19.42;49.32;99817.20;104921;1291;62174;-80
2024/04/25 06:17:10;;;;;;;;;;;;;;;19.44;49.30;99816.55;105142;1291;62269;-79
2024/04/25 06:19:36;;;;;;;;;;;;;;;19.45;49.25;99814.52;105121;1286;60408;-79
2024/04/25 06:22:02;;;;;;;;;;;;;;;19.45;49.50;99811.29;104974;1285;62667;-80
2024/04/25 06:24:29;;;;;;;;;;;;;;;19.46;49.37;99810.65;105101;1286;60484;-80
2024/04/25 06:26:54;;;;;;;;;;;;;;;19.47;49.38;99806.67;104985;1286;61163;-81
2024/04/25 06:29:20;;;;;;;;;;;;;;;19.47;49.50;99805.77;104925;1291;60307;-80
2024/04/25 06:31:45;;;;;;;;;;;;;;;19.48;49.44;99803.61;104660;1286;62254;-79
2024/04/25 06:34:11;;;;;;;;;;;;;;;19.47;49.34;99804.50;104606;1289;62267;-80
2024/04/25 06:36:37;;;;;;;;;;;;;;;19.47;49.40;99816.30;104508;1288;72433;-81
2024/04/25 06:39:03;;;;;;;;;;;;;;;19.46;49.42;99816.36;104026;1291;62184;-80
2024/04/25 06:41:29;;;;;;;;;;;;;;;19.46;49.35;99815.49;104466;1291;62242;-79
2024/04/25 06:43:56;;;;;;;;;;;;;;;19.46;49.28;99815.00;104146;1290;62213;-79
2024/04/25 06:46:22;;;;;;;;;;;;;;;19.44;49.41;99817.40;103926;1292;62274;-80
2024/04/25 06:48:48;;;;;;;;;;;;;;;19.43;49.27;99819.61;104488;1291;62448;-80
2024/04/25 06:51:18;;;;;;;;;;;;;;;19.42;49.21;99820.02;104489;1286;60674;-80
2024/04/25 06:53:47;;;;;;;;;;;;;;;19.41;49.43;99821.95;104558;1289;61993;-79
2024/04/25 06:56:13;;;;;;;;;;;;;;;19.39;49.19;99815.13;104690;1291;73428;-79
2024/04/25 06:58:38;;;;;;;;;;;;;;;19.39;49.29;99820.70;104476;1292;63564;-78
2024/04/25 07:01:05;;;;;;;;;;;;;;;19.39;49.21;99817.49;104369;1287;62296;-78
2024/04/25 07:03:31;;;;;;;;;;;;;;;19.38;49.28;99816.27;104412;1288;62082;-80
2024/04/25 07:05:57;;;;;;;;;;;;;;;19.38;49.52;99814.70;104867;1290;62126;-81
2024/04/25 07:08:22;;;;;;;;;;;;;;;19.39;49.42;99820.16;104911;1292;62185;-79
2024/04/25 07:10:48;;;;;;;;;;;;;;;19.39;49.39;99821.19;104746;1291;62220;-79
2024/04/25 07:13:14;;;;;;;;;;;;;;;19.39;49.44;99816.88;104543;1286;62186;-79
2024/04/25 07:15:40;;;;;;;;;;;;;;;19.40;49.46;99811.88;104821;1286;60338;-79
2024/04/25 07:18:07;;;;;;;;;;;;;;;19.40;49.55;99810.96;105008;1286;61536;-82
2024/04/25 07:20:33;;;;;;;;;;;;;;;19.41;49.43;99805.72;105080;1292;60275;-79
2024/04/25 07:22:58;;;;;;;;;;;;;;;19.42;49.61;99807.36;106090;1285;60057;-80
2024/04/25 07:25:25;;;;;;;;;;;;;;;19.41;49.48;99809.42;106164;1286;60348;-80
2024/04/25 07:27:51;;;;;;;;;;;;;;;19.40;49.56;99814.92;106137;1291;60125;-81
2024/04/25 07:30:16;;;;;;;;;;;;;;;19.40;49.77;99815.91;106313;1285;60125;-81
2024/04/25 07:32:42;;;;;;;;;;;;;;;19.41;49.75;99814.80;106256;1289;59705;-79
2024/04/25 07:35:07;;;;;;;;;;;;;;;19.42;49.72;99817.56;106093;1286;60106;-80
2024/04/25 07:37:34;;;;;;;;;;;;;;;19.43;49.74;99814.64;106320;1286;60387;-81
2024/04/25 07:40:00;;;;;;;;;;;;;;;19.44;49.98;99814.55;106375;1290;60156;-80
2024/04/25 07:42:26;;;;;;;;;;;;;;;19.45;49.89;99817.16;106245;1292;59769;-79
2024/04/25 07:44:52;;;;;;;;;;;;;;;19.46;49.95;99811.92;106340;1286;59992;-79
2024/04/25 07:47:18;;;;;;;;;;;;;;;19.47;49.88;99815.05;104918;1286;62174;-79
2024/04/25 07:49:43;;;;;;;;;;;;;;;19.47;49.84;99818.92;104176;1292;62164;-80
2024/04/25 07:52:09;;;;;;;;;;;;;;;19.49;49.86;99817.55;104480;1286;62283;-79
2024/04/25 07:54:34;;;;;;;;;;;;;;;19.50;50.03;99821.39;104803;1286;75975;-79
2024/04/25 07:57:00;;;;;;;;;;;;;;;19.50;49.96;99826.41;105094;1292;62193;-80
2024/04/25 07:59:27;;;;;;;;;;;;;;;19.48;49.84;99823.55;104954;1292;60202;-80
2024/04/25 08:01:53;;;;;;;;;;;;;;;19.49;49.90;99818.13;104814;1288;62019;-79
2024/04/25 08:04:18;;;;;;;;;;;;;;;19.48;49.97;99815.33;104969;1286;62188;-78
2024/04/25 08:06:44;;;;;;;;;;;;;;;19.48;50.14;99815.02;104691;1286;60356;-78
2024/04/25 08:09:09;;;;;;;;;;;;;;;19.48;50.09;99808.73;104936;1286;62128;-79
2024/04/25 08:11:36;;;;;;;;;;;;;;;19.48;50.01;99807.10;104892;1292;62561;-78
2024/04/25 08:14:02;;;;;;;;;;;;;;;19.48;50.30;99807.08;104663;1286;62079;-78
2024/04/25 08:16:27;;;;;;;;;;;;;;;19.50;50.10;99802.68;104732;1286;62184;-81
2024/04/25 08:18:53;;;;;;;;;;;;;;;19.49;50.16;99792.56;104573;1291;62136;-79
2024/04/25 08:21:18;;;;;;;;;;;;;;;19.49;50.10;99795.60;104666;1292;62073;-78
2024/04/25 08:23:45;;;;;;;;;;;;;;;19.49;50.12;99793.27;104917;1287;60350;-81
2024/04/25 08:26:10;;;;;;;;;;;;;;;19.49;50.22;99785.96;105028;1286;62194;-79
2024/04/25 08:28:37;;;;;;;;;;;;;;;19.49;50.05;99782.73;104862;1286;60624;-80
2024/04/25 08:31:02;;;;;;;;;;;;;;;19.51;50.03;99770.70;104977;1285;63618;-81
2024/04/25 08:33:28;;;;;;;;;;;;;;;19.50;50.10;99764.63;104849;1289;62108;-80
2024/04/25 08:35:53;;;;;;;;;;;;;;;19.50;50.04;99765.34;104790;1291;62254;-81
2024/04/25 08:38:19;;;;;;;;;;;;;;;19.51;50.06;99761.88;105146;1290;65391;-80
2024/04/25 08:40:48;;;;;;;;;;;;;;;19.51;50.01;99760.69;105500;1289;62464;-80
2024/04/25 08:43:14;;;;;;;;;;;;;;;19.51;49.98;99759.59;104992;1285;62033;-81
2024/04/25 08:45:40;;;;;;;;;;;;;;;19.50;49.98;99755.86;105052;1286;62186;-81
2024/04/25 08:48:06;;;;;;;;;;;;;;;19.49;49.82;99749.73;104614;1288;61906;-80
2024/04/25 08:50:31;;;;;;;;;;;;;;;19.49;49.93;99747.63;104419;1290;62168;-81
2024/04/25 08:52:58;;;;;;;;;;;;;;;19.46;49.84;99749.42;104500;1288;62197;-80
2024/04/25 08:55:24;;;;;;;;;;;;;;;19.43;49.68;99750.03;104265;1286;62130;-80
2024/04/25 08:57:50;;;;;;;;;;;;;;;19.41;49.74;99748.45;104330;1291;62079;-80
2024/04/25 09:00:16;;;;;;;;;;;;;;;19.37;49.63;99752.67;104542;1291;62191;-80
2024/04/25 09:02:42;;;;;;;;;;;;;;;19.33;49.66;99749.98;104538;1288;62040;-81
2024/04/25 09:05:11;;;;;;;;;;;;;;;19.29;49.83;99751.69;104777;1287;62280;-81
2024/04/25 09:07:37;;;;;;;;;;;;;;;19.31;49.77;99756.38;104466;1285;62143;-81
2024/04/25 09:10:03;;;;;;;;;;;;;;;19.33;49.68;99755.67;104631;1286;71205;-80
2024/04/25 09:12:34;;;;;;;;;;;;;;;19.30;49.79;99760.89;104823;1289;61284;-80
2024/04/25 09:14:59;;;;;;;;;;;;;;;19.26;49.75;99757.09;104747;1286;61992;-79
2024/04/25 09:17:25;;;;;;;;;;;;;;;19.29;49.71;99757.62;104264;1286;62222;-80
2024/04/25 09:19:54;;;;;;;;;;;;;;;19.32;49.71;99759.71;104098;1290;62079;-81
2024/04/25 09:22:20;;;;;;;;;;;;;;;19.34;49.76;99759.31;104153;1285;75107;-81
2024/04/25 09:24:45;;;;;;;;;;;;;;;19.37;49.78;99753.55;104061;1285;63372;-80
2024/04/25 09:27:11;;;;;;;;;;;;;;;19.39;49.85;99748.55;104255;1286;62222;-80
2024/04/25 09:29:36;;;;;;;;;;;;;;;19.42;49.79;99745.16;104408;1287;62591;-81
2024/04/25 09:32:02;;;;;;;;;;;;;;;19.42;49.60;99744.35;104036;1285;62073;-80
2024/04/25 09:34:28;;;;;;;;;;;;;;;19.42;49.75;99742.59;104218;1288;62182;-80
2024/04/25 09:36:54;;;;;;;;;;;;;;;19.43;49.71;99741.42;104182;1286;59951;-80
2024/04/25 09:39:20;;;;;;;;;;;;;;;19.45;49.71;99742.97;104151;1286;63240;-80
2024/04/25 09:41:46;;;;;;;;;;;;;;;19.45;49.46;99744.38;104205;1286;62106;-80
2024/04/25 09:44:13;;;;;;;;;;;;;;;19.46;49.66;99746.38;104474;1286;62226;-80
2024/04/25 09:46:52;;;;;;;;;;;;;;;19.47;49.70;99745.44;104263;1291;61956;-80
2024/04/25 09:49:17;;;;;;;;;;;;;;;19.48;49.70;99746.80;104238;1286;62285;-80
2024/04/25 09:51:46;;;;;;;;;;;;;;;19.48;49.64;99745.34;104008;1289;62123;-80
2024/04/25 09:54:17;;;;;;;;;;;;;;;19.49;49.53;99743.70;104110;1286;76199;-80
2024/04/25 09:56:44;;;;;;;;;;;;;;;19.48;49.59;99745.76;104009;1286;62198;-81
2024/04/25 09:59:13;;;;;;;;;;;;;;;19.49;49.67;99745.84;103877;1286;62413;-80
2024/04/25 10:01:40;;;;;;;;;;;;;;;19.49;49.59;99741.37;103952;1288;73530;-80
2024/04/25 10:04:06;;;;;;;;;;;;;;;19.50;49.49;99735.72;103598;1292;62220;-81
2024/04/25 10:06:31;;;;;;;;;;;;;;;19.50;49.51;99732.16;103879;1285;62293;-78
2024/04/25 10:08:57;;;;;;;;;;;;;;;19.49;49.52;99731.77;103614;1291;62296;-79
2024/04/25 10:11:22;;;;;;;;;;;;;;;19.46;49.38;99728.44;103525;1294;62206;-80
2024/04/25 10:13:51;;;;;;;;;;;;;;;19.42;49.36;99735.27;103658;1290;72494;-80
2024/04/25 10:16:17;;;;;;;;;;;;;;;19.39;49.30;99731.98;103468;1288;76184;-79
2024/04/25 10:18:48;;;;;;;;;;;;;;;19.36;49.45;99722.61;103904;1286;62114;-80
2024/04/25 10:21:14;;;;;;;;;;;;;;;19.35;49.28;99714.10;103912;1285;63551;-79
2024/04/25 10:23:40;;;;;;;;;;;;;;;19.35;49.25;99714.80;104025;1286;63400;-79
2024/04/25 10:26:14;;;;;;;;;;;;;;;19.35;49.24;99713.42;103747;1287;62149;-79
2024/04/25 10:28:40;;;;;;;;;;;;;;;19.33;49.21;99705.71;103699;1285;62104;-80
2024/04/25 10:31:06;;;;;;;;;;;;;;;19.32;49.12;99703.87;103871;1289;62203;-80
2024/04/25 10:33:32;;;;;;;;;;;;;;;19.32;49.22;99702.77;103936;1286;63557;-78
2024/04/25 10:36:02;;;;;;;;;;;;;;;19.34;49.27;99696.20;103630;1287;62079;-81
2024/04/25 10:38:28;;;;;;;;;;;;;;;19.36;49.30;99694.76;103671;1285;62073;-80
2024/04/25 10:40:53;;;;;;;;;;;;;;;19.38;49.12;99695.27;103733;1285;62199;-80
2024/04/25 10:43:19;;;;;;;;;;;;;;;19.41;49.33;99694.36;103574;1291;62191;-80
2024/04/25 10:45:44;;;;;;;;;;;;;;;19.42;49.21;99697.27;103558;1286;62182;-78
2024/04/25 10:48:10;;;;;;;;;;;;;;;19.42;49.09;99696.20;103469;1288;62136;-80
2024/04/25 10:50:36;;;;;;;;;;;;;;;19.44;49.08;99698.57;103435;1289;62111;-81
2024/04/25 10:53:02;;;;;;;;;;;;;;;19.46;49.16;99699.27;103578;1286;62098;-81
2024/04/25 10:55:28;;;;;;;;;;;;;;;19.48;49.23;99701.66;103573;1286;63341;-80
2024/04/25 10:57:53;;;;;;;;;;;;;;;19.50;49.19;99700.95;103643;1285;63332;-81
2024/04/25 11:00:19;;;;;;;;;;;;;;;19.52;49.27;99705.05;103737;1285;62165;-79
2024/04/25 11:02:49;;;;;;;;;;;;;;;19.53;49.31;99703.17;103798;1285;62129;-79
2024/04/25 11:05:15;;;;;;;;;;;;;;;19.55;49.29;99705.67;103536;1285;72290;-80
2024/04/25 11:07:40;;;;;;;;;;;;;;;19.57;49.44;99704.82;103557;1286;62197;-81
2024/04/25 11:10:10;;;;;;;;;;;;;;;19.58;49.53;99704.02;103570;1291;62206;-80
2024/04/25 11:12:36;;;;;;;;;;;;;;;19.59;49.64;99701.96;103826;1285;62127;-80
2024/04/25 11:15:13;;;;;;;;;;;;;;;19.61;49.59;99710.95;103364;1285;70216;-80
2024/04/25 11:17:38;;;;;;;;;;;;;;;19.62;49.62;99709.23;103595;1287;74963;-80
2024/04/25 11:20:04;;;;;;;;;;;;;;;19.63;49.66;99713.81;103994;1291;62266;-80
2024/04/25 11:22:34;;;;;;;;;;;;;;;19.64;49.81;99713.70;104070;1285;62143;-80
2024/04/25 11:25:02;;;;;;;;;;;;;;;19.66;49.79;99713.59;104071;1285;72477;-79
2024/04/25 11:27:28;;;;;;;;;;;;;;;19.67;49.80;99708.34;103812;1286;75087;-79
2024/04/25 11:29:54;;;;;;;;;;;;;;;19.68;49.84;99707.35;103670;1286;62081;-80
2024/04/25 11:32:20;;;;;;;;;;;;;;;19.69;49.73;99710.27;103724;1291;62209;-80
2024/04/25 11:34:45;;;;;;;;;;;;;;;19.70;49.76;99710.92;104094;1286;62104;-79
2024/04/25 11:37:11;;;;;;;;;;;;;;;19.71;49.87;99708.16;104015;1287;62284;-78
2024/04/25 11:39:37;;;;;;;;;;;;;;;19.72;49.90;99705.58;103757;1286;62204;-80
2024/04/25 11:42:07;;;;;;;;;;;;;;;19.73;50.04;99705.65;104027;1286;62152;-79
2024/04/25 11:44:33;;;;;;;;;;;;;;;19.73;49.97;99701.88;103384;1286;62226;-80
2024/04/25 11:47:00;;;;;;;;;;;;;;;19.75;50.14;99703.36;103682;1287;62174;-80
2024/04/25 11:49:26;;;;;;;;;;;;;;;19.76;50.26;99704.54;103687;1289;62188;-80
2024/04/25 11:51:51;;;;;;;;;;;;;;;19.77;50.28;99711.42;103631;1287;62160;-80
2024/04/25 11:54:17;;;;;;;;;;;;;;;19.77;50.22;99714.23;103708;1288;62117;-79
2024/04/25 11:56:42;;;;;;;;;;;;;;;19.78;50.33;99722.63;103983;1291;62410;-80
2024/04/25 11:59:08;;;;;;;;;;;;;;;19.78;50.45;99726.14;103747;1289;62204;-79
2024/04/25 12:01:34;;;;;;;;;;;;;;;19.78;50.53;99730.80;103905;1288;76274;-79
2024/04/25 12:03:59;;;;;;;;;;;;;;;19.77;50.50;99734.95;103581;1286;62235;-80
2024/04/25 12:06:25;;;;;;;;;;;;;;;19.76;50.54;99734.16;103589;1285;62194;-80
2024/04/25 12:08:51;;;;;;;;;;;;;;;19.74;50.86;99736.64;103192;1293;62118;-79
2024/04/25 12:11:16;;;;;;;;;;;;;;;19.73;50.75;99739.90;103443;1288;62299;-78
2024/04/25 12:13:45;;;;;;;;;;;;;;;19.73;50.81;99742.29;102999;1289;62199;-81
2024/04/25 12:16:11;;;;;;;;;;;;;;;19.72;50.81;99743.40;103502;1288;62219;-80
2024/04/25 12:18:38;;;;;;;;;;;;;;;19.73;50.86;99746.93;103929;1294;62111;-80
2024/04/25 12:21:04;;;;;;;;;;;;;;;19.72;50.97;99748.92;103869;1291;63257;-80
2024/04/25 12:23:33;;;;;;;;;;;;;;;19.73;51.10;99742.98;103894;1289;62130;-80
2024/04/25 12:25:59;;;;;;;;;;;;;;;19.75;51.03;99743.02;104143;1291;62361;-80
2024/04/25 12:28:25;;;;;;;;;;;;;;;19.76;51.15;99741.33;104162;1289;62210;-80
2024/04/25 12:30:50;;;;;;;;;;;;;;;19.77;51.13;99744.24;104076;1289;62088;-80
2024/04/25 12:33:16;;;;;;;;;;;;;;;19.78;51.15;99741.35;104235;1291;63790;-80
2024/04/25 12:35:42;;;;;;;;;;;;;;;19.79;51.27;99744.99;103911;1291;62427;-80